Time;durP1;ratioP1;P1;durP2;ratioP2;P2;SDS_P1;SDS_P2;PMS_P1;PMS_P2;Temp;Humidity;BMP_temperature;BMP_pressure;BME280_temperature;BME280_humidity;BME280_pressure;Samples;Min_cycle;Max_cycle;Signal;HPM_P1;HPM_P2
2023/04/15 00:00:29;;;;;;;9.60;3.47;;;10.80;99.90;;;;;;6191046;23;20012;-93
2023/04/15 00:02:55;;;;;;;10.90;3.30;;;10.80;99.90;;;;;;6217303;23;20013;-94
2023/04/15 00:05:21;;;;;;;9.27;3.60;;;10.70;99.90;;;;;;6217617;23;20329;-93
2023/04/15 00:07:46;;;;;;;7.25;3.28;;;10.70;99.90;;;;;;6216701;23;20016;-93
2023/04/15 00:10:15;;;;;;;11.55;3.58;;;10.60;99.90;;;;;;6190735;23;20017;-93
2023/04/15 00:12:41;;;;;;;9.15;3.75;;;10.60;99.90;;;;;;6190502;23;20017;-94
2023/04/15 00:15:08;;;;;;;8.40;3.65;;;10.60;99.90;;;;;;6190099;23;20019;-93
2023/04/15 00:17:34;;;;;;;8.32;3.10;;;10.60;99.90;;;;;;6216565;23;20020;-93
2023/04/15 00:20:00;;;;;;;9.98;3.40;;;10.60;99.90;;;;;;6216951;23;20468;-93
2023/04/15 00:22:26;;;;;;;8.98;3.83;;;10.60;99.90;;;;;;6190416;23;20020;-94
2023/04/15 00:24:52;;;;;;;11.50;3.75;;;10.60;99.90;;;;;;6217194;23;20013;-93
2023/04/15 00:27:18;;;;;;;10.65;3.50;;;10.60;99.90;;;;;;6191036;23;20089;-94
2023/04/15 00:29:44;;;;;;;8.45;3.30;;;10.60;99.90;;;;;;6216780;23;20020;-94
2023/04/15 00:32:09;;;;;;;12.02;3.80;;;10.50;99.90;;;;;;6190431;23;20016;-94
2023/04/15 00:34:35;;;;;;;9.05;3.65;;;10.50;99.90;;;;;;6216453;23;20048;-93
2023/04/15 00:37:01;;;;;;;12.90;3.60;;;10.50;99.90;;;;;;6217192;23;20023;-93
2023/04/15 00:39:27;;;;;;;7.25;3.20;;;10.40;99.90;;;;;;6190454;23;20153;-93
2023/04/15 00:41:53;;;;;;;7.97;3.28;;;10.40;99.90;;;;;;6217172;23;20025;-94
2023/04/15 00:44:19;;;;;;;8.85;3.80;;;10.40;99.90;;;;;;6190088;23;20016;-93
2023/04/15 00:46:46;;;;;;;8.55;3.72;;;10.40;99.90;;;;;;6190152;23;20019;-94
2023/04/15 00:49:12;;;;;;;8.55;3.78;;;10.40;99.90;;;;;;6190051;23;20012;-92
2023/04/15 00:51:37;;;;;;;10.77;3.97;;;10.30;99.90;;;;;;6190255;23;20079;-91
2023/04/15 00:54:04;;;;;;;12.45;4.10;;;10.30;99.90;;;;;;6190349;23;20338;-92
2023/04/15 00:56:33;;;;;;;9.95;3.88;;;10.30;99.90;;;;;;6216653;23;20016;-93
2023/04/15 00:58:58;;;;;;;7.57;3.50;;;10.20;99.90;;;;;;6190534;23;20013;-94
2023/04/15 01:01:25;;;;;;;9.98;3.90;;;10.20;99.90;;;;;;6217113;23;20016;-93
2023/04/15 01:03:51;;;;;;;10.77;4.28;;;10.10;99.90;;;;;;6216397;23;20024;-91
2023/04/15 01:06:17;;;;;;;11.20;4.47;;;10.10;99.90;;;;;;6216966;23;20013;-93
2023/04/15 01:08:44;;;;;;;10.10;4.32;;;10.00;99.90;;;;;;6190510;23;20020;-93
2023/04/15 01:11:11;;;;;;;9.27;3.72;;;10.00;99.90;;;;;;6190413;23;20013;-93
2023/04/15 01:13:37;;;;;;;10.63;3.92;;;10.00;99.90;;;;;;6190308;23;20021;-94
2023/04/15 01:16:03;;;;;;;8.52;4.00;;;10.00;99.90;;;;;;6217107;23;20012;-95
2023/04/15 01:18:30;;;;;;;10.38;4.00;;;9.90;99.90;;;;;;6218887;23;20307;-93
2023/04/15 01:20:56;;;;;;;9.95;4.38;;;9.90;99.90;;;;;;6219099;23;20070;-93
2023/04/15 01:23:22;;;;;;;13.38;4.13;;;9.80;99.90;;;;;;6219473;23;20091;-95
2023/04/15 01:25:48;;;;;;;10.00;4.20;;;9.80;99.90;;;;;;6218550;23;20019;-93
2023/04/15 01:28:14;;;;;;;9.57;4.07;;;9.80;99.90;;;;;;6219120;23;20448;-93
2023/04/15 01:30:40;;;;;;;8.40;3.88;;;9.70;99.90;;;;;;6192135;23;20044;-94
2023/04/15 01:33:06;;;;;;;9.00;3.67;;;9.70;99.90;;;;;;6192768;23;20008;-95
2023/04/15 01:35:32;;;;;;;10.60;4.20;;;9.60;99.90;;;;;;6192346;23;20367;-94
2023/04/15 01:38:16;;;;;;;10.18;4.70;;;9.60;99.90;;;;;;6219332;23;20023;-93
2023/04/15 01:40:41;;;;;;;12.88;4.70;;;9.60;99.90;;;;;;6217724;23;20008;-94
2023/04/15 01:43:07;;;;;;;10.63;5.10;;;9.50;99.90;;;;;;6219326;23;20127;-95
2023/04/15 01:45:32;;;;;;;9.57;4.55;;;9.50;99.90;;;;;;6191523;23;20028;-94
2023/04/15 01:47:58;;;;;;;11.65;4.57;;;9.50;99.90;;;;;;6192279;23;20505;-93
2023/04/15 01:50:24;;;;;;;10.93;4.68;;;9.40;99.90;;;;;;6192193;23;20028;-93
2023/04/15 01:52:50;;;;;;;10.07;5.05;;;9.40;99.90;;;;;;6218491;23;20021;-95
2023/04/15 01:55:16;;;;;;;8.90;4.53;;;9.30;99.90;;;;;;6192079;23;20013;-94
2023/04/15 01:57:41;;;;;;;10.38;5.18;;;9.30;99.90;;;;;;6218761;23;20020;-94
2023/04/15 02:00:08;;;;;;;9.18;5.35;;;9.30;99.90;;;;;;6192109;23;20016;-93
2023/04/15 02:02:33;;;;;;;9.93;5.00;;;9.20;99.90;;;;;;6191856;23;20016;-93
2023/04/15 02:04:59;;;;;;;11.95;4.65;;;9.20;99.90;;;;;;6191779;23;20318;-94
2023/04/15 02:07:25;;;;;;;8.77;4.82;;;9.20;99.90;;;;;;6191974;23;20016;-93
2023/04/15 02:09:52;;;;;;;8.52;4.93;;;9.20;99.90;;;;;;6218881;23;20082;-94
2023/04/15 02:12:17;;;;;;;9.57;5.53;;;9.10;99.90;;;;;;6192059;23;20020;-94
2023/04/15 02:14:43;;;;;;;9.88;5.40;;;9.10;99.90;;;;;;6191564;23;20020;-93
2023/04/15 02:17:09;;;;;;;8.63;4.95;;;9.10;99.90;;;;;;6218361;23;20022;-94
2023/04/15 02:19:35;;;;;;;9.35;5.32;;;9.00;99.90;;;;;;6218313;23;20066;-94
2023/04/15 02:22:01;;;;;;;10.35;5.28;;;9.00;99.90;;;;;;6191813;23;20024;-94
2023/04/15 02:24:27;;;;;;;10.23;5.90;;;8.90;99.90;;;;;;6218543;23;20013;-94
2023/04/15 02:26:53;;;;;;;12.43;6.05;;;8.90;99.90;;;;;;6191735;23;20025;-94
2023/04/15 02:29:18;;;;;;;12.25;5.80;;;8.90;99.90;;;;;;6191208;23;20039;-93
2023/04/15 02:31:44;;;;;;;11.98;5.63;;;8.90;99.90;;;;;;6218373;23;20021;-94
2023/04/15 02:34:10;;;;;;;10.80;5.95;;;8.90;99.90;;;;;;6218187;23;20091;-94
2023/04/15 02:36:36;;;;;;;10.25;5.60;;;8.80;99.90;;;;;;6217791;23;20023;-94
2023/04/15 02:39:02;;;;;;;12.50;5.90;;;8.80;99.90;;;;;;6218439;23;20009;-94
2023/04/15 02:41:28;;;;;;;14.38;6.53;;;8.80;99.90;;;;;;6192017;23;20032;-94
2023/04/15 02:43:55;;;;;;;12.77;5.78;;;8.80;99.90;;;;;;6191146;23;20012;-92
2023/04/15 02:46:21;;;;;;;11.02;5.65;;;8.80;99.90;;;;;;6191718;23;20017;-94
2023/04/15 02:48:48;;;;;;;10.40;6.00;;;8.70;99.90;;;;;;6218031;23;20027;-93
2023/04/15 02:51:15;;;;;;;10.68;6.13;;;8.70;99.90;;;;;;6191957;23;20036;-94
2023/04/15 02:53:41;;;;;;;11.50;6.10;;;8.70;99.90;;;;;;6191622;23;20023;-93
2023/04/15 02:56:07;;;;;;;12.82;6.32;;;8.60;99.90;;;;;;6217860;23;20012;-93
2023/04/15 02:58:34;;;;;;;9.80;6.22;;;8.70;99.90;;;;;;6218161;23;20024;-93
2023/04/15 03:00:59;;;;;;;11.82;6.13;;;8.60;99.90;;;;;;6191719;23;20099;-93
2023/04/15 03:03:26;;;;;;;11.82;6.50;;;8.60;99.90;;;;;;6191250;23;20474;-94
2023/04/15 03:05:52;;;;;;;9.57;6.00;;;8.60;99.90;;;;;;6217998;23;20017;-94
2023/04/15 03:08:18;;;;;;;10.85;6.60;;;8.50;99.90;;;;;;6191660;23;20536;-94
2023/04/15 03:10:43;;;;;;;10.10;6.47;;;8.60;99.90;;;;;;6218175;23;20066;-94
2023/04/15 03:13:09;;;;;;;11.35;6.55;;;8.50;99.90;;;;;;6191409;23;20019;-93
2023/04/15 03:15:35;;;;;;;10.20;5.95;;;8.50;99.90;;;;;;6217857;23;20024;-93
2023/04/15 03:18:00;;;;;;;10.50;6.15;;;8.50;99.90;;;;;;6217626;23;20016;-93
2023/04/15 03:20:26;;;;;;;11.15;7.20;;;8.50;99.90;;;;;;6218057;23;20015;-92
2023/04/15 03:22:52;;;;;;;12.60;6.80;;;8.40;99.90;;;;;;6217862;23;20521;-93
2023/04/15 03:25:17;;;;;;;10.52;6.55;;;8.40;99.90;;;;;;6217373;23;20019;-93
2023/04/15 03:27:43;;;;;;;10.85;6.10;;;8.30;99.90;;;;;;6191111;23;20016;-94
2023/04/15 03:30:09;;;;;;;12.93;6.38;;;8.30;99.90;;;;;;6217797;23;20012;-93
2023/04/15 03:32:35;;;;;;;11.85;6.45;;;8.30;99.90;;;;;;6216937;23;20044;-93
2023/04/15 03:35:00;;;;;;;11.90;6.65;;;8.20;99.90;;;;;;6218174;23;20009;-93
2023/04/15 03:37:26;;;;;;;11.45;6.43;;;8.20;99.90;;;;;;6191401;23;20016;-94
2023/04/15 03:39:52;;;;;;;12.70;6.70;;;8.20;99.90;;;;;;6190649;23;20521;-93
2023/04/15 03:42:17;;;;;;;10.52;6.55;;;8.10;99.90;;;;;;6191464;23;20024;-93
2023/04/15 03:44:43;;;;;;;10.77;6.93;;;8.10;99.90;;;;;;6217559;23;20088;-94
2023/04/15 03:47:08;;;;;;;9.10;6.15;;;8.10;99.90;;;;;;6217476;23;20024;-94
2023/04/15 03:49:35;;;;;;;14.98;6.85;;;8.00;99.90;;;;;;6190959;23;20044;-94
2023/04/15 03:52:01;;;;;;;15.77;6.57;;;8.00;99.90;;;;;;6217520;23;20028;-93
2023/04/15 03:54:26;;;;;;;12.13;6.70;;;8.00;99.90;;;;;;6191103;23;20012;-94
2023/04/15 03:56:52;;;;;;;8.75;6.22;;;8.00;99.90;;;;;;6190780;23;20024;-93
2023/04/15 03:59:17;;;;;;;10.27;7.03;;;7.90;99.90;;;;;;6190804;23;20299;-94
2023/04/15 04:01:43;;;;;;;12.60;7.28;;;7.90;99.90;;;;;;6190718;23;20092;-94
2023/04/15 04:04:09;;;;;;;9.52;7.10;;;7.90;99.90;;;;;;6191050;23;20009;-94
2023/04/15 04:06:34;;;;;;;10.32;6.72;;;7.90;99.90;;;;;;6190624;23;20017;-94
2023/04/15 04:09:00;;;;;;;10.63;6.95;;;7.90;99.90;;;;;;6191093;23;20013;-94
2023/04/15 04:11:27;;;;;;;10.43;7.18;;;7.80;99.90;;;;;;6217321;23;20499;-94
2023/04/15 04:13:52;;;;;;;11.98;7.20;;;7.80;99.90;;;;;;6190333;23;20016;-94
2023/04/15 04:16:18;;;;;;;11.25;7.70;;;7.80;99.90;;;;;;6217634;23;20059;-93
2023/04/15 04:18:44;;;;;;;11.48;7.38;;;7.70;99.90;;;;;;6190793;23;20013;-94
2023/04/15 04:21:10;;;;;;;14.00;7.45;;;7.70;99.90;;;;;;6190461;23;20008;-94
2023/04/15 04:23:36;;;;;;;11.80;8.10;;;7.70;99.90;;;;;;6190939;23;20051;-94
2023/04/15 04:26:01;;;;;;;12.15;7.72;;;7.70;99.90;;;;;;6218438;23;20008;-93
2023/04/15 04:28:27;;;;;;;12.75;7.90;;;7.70;99.90;;;;;;6190443;23;20097;-96
2023/04/15 04:30:52;;;;;;;12.02;7.97;;;7.70;99.90;;;;;;6218701;23;20020;-96
2023/04/15 04:33:18;;;;;;;12.25;7.38;;;7.70;99.90;;;;;;6190347;23;20016;-95
2023/04/15 04:35:45;;;;;;;13.52;8.55;;;7.60;99.90;;;;;;6217483;23;20449;-95
2023/04/15 04:38:11;;;;;;;13.00;8.27;;;7.60;99.90;;;;;;6191043;23;20021;-94
2023/04/15 04:40:36;;;;;;;10.32;7.63;;;7.60;99.90;;;;;;6190428;23;20024;-96
2023/04/15 04:43:02;;;;;;;13.95;8.10;;;7.60;99.90;;;;;;6190610;23;20063;-95
2023/04/15 04:45:28;;;;;;;9.60;7.00;;;7.50;99.90;;;;;;6191209;23;20096;-94
2023/04/15 04:47:54;;;;;;;11.55;8.07;;;7.50;99.90;;;;;;6191130;23;20349;-95
2023/04/15 04:50:19;;;;;;;10.55;8.10;;;7.40;99.90;;;;;;6217673;23;20020;-94
2023/04/15 04:52:45;;;;;;;13.05;8.55;;;7.40;99.90;;;;;;6216369;23;20013;-94
2023/04/15 04:55:11;;;;;;;11.52;8.25;;;7.40;99.90;;;;;;6217693;23;20013;-95
2023/04/15 04:57:38;;;;;;;12.32;8.75;;;7.40;99.90;;;;;;6189936;23;20020;-95
2023/04/15 05:00:05;;;;;;;11.48;8.55;;;7.30;99.90;;;;;;6191524;23;20023;-95
2023/04/15 05:02:31;;;;;;;12.73;8.43;;;7.30;99.90;;;;;;6191754;23;20024;-95
2023/04/15 05:04:57;;;;;;;11.15;8.18;;;7.30;99.90;;;;;;6192942;23;20008;-96
2023/04/15 05:07:22;;;;;;;15.15;8.50;;;7.30;99.90;;;;;;6219095;23;20075;-96
2023/04/15 05:09:48;;;;;;;12.27;8.82;;;7.20;99.90;;;;;;6191730;23;20063;-96
2023/04/15 05:12:14;;;;;;;12.23;8.98;;;7.20;99.90;;;;;;6192288;23;20055;-96
2023/04/15 05:14:42;;;;;;;12.13;8.35;;;7.20;99.90;;;;;;6191772;23;20016;-96
2023/04/15 05:17:11;;;;;;;12.65;8.88;;;7.20;99.90;;;;;;6191533;23;20023;-96
2023/04/15 05:19:37;;;;;;;13.93;8.88;;;7.20;99.90;;;;;;6191201;23;20017;-96
2023/04/15 05:22:03;;;;;;;13.02;9.07;;;7.10;99.90;;;;;;6218748;23;20104;-96
2023/04/15 05:24:28;;;;;;;13.63;9.20;;;7.10;99.90;;;;;;6192281;23;20016;-95
2023/04/15 05:26:55;;;;;;;12.88;9.02;;;7.10;99.90;;;;;;6193592;23;20028;-96
2023/04/15 05:29:20;;;;;;;13.73;9.38;;;7.00;99.90;;;;;;6192517;23;20023;-95
2023/04/15 05:31:46;;;;;;;12.43;8.43;;;7.10;99.90;;;;;;6190980;23;20020;-96
2023/04/15 05:34:12;;;;;;;12.52;9.48;;;7.10;99.90;;;;;;6219425;23;20043;-96
2023/04/15 05:36:37;;;;;;;16.23;10.23;;;7.00;99.90;;;;;;6220141;23;20009;-95
2023/04/15 05:39:03;;;;;;;12.77;9.80;;;7.00;99.90;;;;;;6192373;23;20017;-93
2023/04/15 05:41:29;;;;;;;13.05;9.73;;;7.00;99.90;;;;;;6191818;23;20453;-95
2023/04/15 05:43:55;;;;;;;12.98;8.85;;;7.00;99.90;;;;;;6192780;23;20016;-93
2023/04/15 05:46:21;;;;;;;13.43;9.70;;;7.00;99.90;;;;;;6190863;23;20016;-94
2023/04/15 05:48:47;;;;;;;13.15;9.55;;;7.00;99.90;;;;;;6217447;23;20023;-91
2023/04/15 05:51:13;;;;;;;12.52;9.57;;;7.00;99.90;;;;;;6216081;23;20035;-91
2023/04/15 05:53:40;;;;;;;11.60;9.02;;;7.00;99.90;;;;;;6188625;23;20013;-90
2023/04/15 05:56:06;;;;;;;12.05;8.88;;;6.90;99.90;;;;;;6215547;23;20016;-89
2023/04/15 05:58:32;;;;;;;12.43;9.05;;;6.90;99.90;;;;;;6189834;23;20023;-90
2023/04/15 06:00:58;;;;;;;12.68;9.32;;;6.90;99.90;;;;;;6215754;23;20048;-91
2023/04/15 06:03:43;;;;;;;13.00;9.77;;;6.90;99.90;;;;;;6192339;23;20044;-94
2023/04/15 06:06:09;;;;;;;12.68;9.55;;;6.90;99.90;;;;;;6191116;23;20100;-91
2023/04/15 06:08:46;;;;;;;12.05;9.18;;;6.90;99.90;;;;;;6190773;23;20017;-92
2023/04/15 06:11:12;;;;;;;16.40;10.40;;;6.90;99.90;;;;;;6190346;23;20044;-92
2023/04/15 06:13:38;;;;;;;14.15;9.10;;;6.80;99.90;;;;;;6191088;23;20027;-92
2023/04/15 06:16:03;;;;;;;13.35;9.30;;;6.90;99.90;;;;;;6191954;23;20019;-93
2023/04/15 06:18:32;;;;;;;13.90;9.88;;;6.90;99.90;;;;;;6191832;23;20310;-91
2023/04/15 06:20:58;;;;;;;13.88;9.30;;;6.90;99.90;;;;;;6216570;23;20071;-91
2023/04/15 06:23:24;;;;;;;13.10;9.80;;;6.90;99.90;;;;;;6218470;23;20021;-89
2023/04/15 06:25:50;;;;;;;12.77;9.48;;;6.90;99.90;;;;;;6191010;23;20047;-91
2023/04/15 06:28:16;;;;;;;15.23;11.25;;;6.90;99.90;;;;;;6217906;23;20016;-91
2023/04/15 06:30:41;;;;;;;17.42;10.23;;;6.90;99.90;;;;;;6218121;23;20020;-91
2023/04/15 06:33:07;;;;;;;13.50;10.63;;;6.90;99.90;;;;;;6218647;23;20012;-91
2023/04/15 06:35:33;;;;;;;14.68;10.85;;;7.00;99.90;;;;;;6191365;23;20025;-93
2023/04/15 06:37:58;;;;;;;13.40;9.55;;;7.10;99.90;;;;;;6191618;23;20027;-91
2023/04/15 06:40:24;;;;;;;14.07;10.57;;;7.00;99.90;;;;;;6218003;23;20017;-93
2023/04/15 06:42:50;;;;;;;15.52;10.90;;;7.10;99.90;;;;;;6190629;23;20322;-91
2023/04/15 06:45:16;;;;;;;16.48;10.98;;;7.20;99.90;;;;;;6217942;23;20012;-90
2023/04/15 06:47:42;;;;;;;13.95;10.55;;;7.20;99.90;;;;;;6218243;23;20016;-92
2023/04/15 06:50:08;;;;;;;17.52;10.45;;;7.30;99.90;;;;;;6191163;23;20067;-93
2023/04/15 06:52:35;;;;;;;13.98;10.88;;;7.30;99.90;;;;;;6191161;23;20040;-93
2023/04/15 06:55:01;;;;;;;14.25;10.63;;;7.40;99.90;;;;;;6219649;23;20013;-91
2023/04/15 06:57:27;;;;;;;13.50;10.07;;;7.40;99.90;;;;;;6192707;23;20067;-92
2023/04/15 06:59:53;;;;;;;14.82;10.38;;;7.40;99.90;;;;;;6218079;23;20064;-93
2023/04/15 07:02:19;;;;;;;13.75;10.57;;;7.50;99.90;;;;;;6218420;23;20027;-93
2023/04/15 07:04:45;;;;;;;16.05;11.20;;;7.50;99.90;;;;;;6191681;23;20380;-93
2023/04/15 07:07:11;;;;;;;17.10;11.20;;;7.60;99.90;;;;;;6191937;23;20020;-92
2023/04/15 07:09:37;;;;;;;13.90;10.30;;;7.60;99.90;;;;;;6217344;23;20017;-92
2023/04/15 07:12:03;;;;;;;15.52;10.75;;;7.60;99.90;;;;;;6191991;23;20361;-93
2023/04/15 07:14:28;;;;;;;16.55;11.13;;;7.60;99.90;;;;;;6218578;23;20012;-93
2023/04/15 07:16:55;;;;;;;13.95;10.57;;;7.70;99.90;;;;;;6217363;23;20023;-94
2023/04/15 07:19:21;;;;;;;13.40;10.52;;;7.70;99.90;;;;;;6191993;23;20013;-92
2023/04/15 07:21:46;;;;;;;16.05;10.77;;;7.70;99.90;;;;;;6191564;23;20024;-93
2023/04/15 07:24:15;;;;;;;14.00;10.10;;;7.80;99.90;;;;;;6191515;23;20019;-91
2023/04/15 07:26:41;;;;;;;16.20;10.88;;;7.80;99.90;;;;;;6191197;23;20339;-93
2023/04/15 07:29:07;;;;;;;14.13;9.90;;;7.90;99.90;;;;;;6218009;23;20023;-93
2023/04/15 07:31:32;;;;;;;14.68;9.93;;;7.90;99.90;;;;;;6217194;23;20017;-92
2023/04/15 07:33:58;;;;;;;13.73;9.40;;;8.00;99.90;;;;;;6218329;23;20016;-93
2023/04/15 07:36:24;;;;;;;13.40;9.65;;;8.00;99.90;;;;;;6218208;23;20441;-94
2023/04/15 07:38:50;;;;;;;13.23;9.98;;;8.00;99.90;;;;;;6190925;23;20013;-93
2023/04/15 07:41:16;;;;;;;13.40;9.73;;;8.10;99.90;;;;;;6217755;23;20433;-93
2023/04/15 07:43:42;;;;;;;15.20;9.80;;;8.20;99.90;;;;;;6217804;23;20070;-92
2023/04/15 07:46:08;;;;;;;13.90;10.10;;;8.20;99.90;;;;;;6217433;23;20064;-92
2023/04/15 07:48:33;;;;;;;14.23;9.18;;;8.20;99.90;;;;;;6191035;23;20016;-94
2023/04/15 07:50:59;;;;;;;11.63;8.85;;;8.20;99.90;;;;;;6191754;23;20455;-93
2023/04/15 07:53:25;;;;;;;13.50;9.18;;;8.30;99.90;;;;;;6217699;23;20062;-93
2023/04/15 07:55:50;;;;;;;13.52;9.45;;;8.40;99.90;;;;;;6191372;23;20139;-94
2023/04/15 07:58:16;;;;;;;12.90;8.73;;;8.40;99.90;;;;;;6191366;23;20017;-93
2023/04/15 08:00:44;;;;;;;12.90;9.38;;;8.40;99.90;;;;;;6191427;23;20095;-94
2023/04/15 08:03:10;;;;;;;12.80;8.85;;;8.50;99.90;;;;;;6191768;23;20044;-93
2023/04/15 08:05:36;;;;;;;12.23;8.35;;;8.40;99.90;;;;;;6217584;23;20433;-93
2023/04/15 08:08:01;;;;;;;12.82;8.85;;;8.50;99.90;;;;;;6191667;23;20020;-94
2023/04/15 08:10:29;;;;;;;13.90;8.63;;;8.50;99.90;;;;;;6218471;23;20013;-95
2023/04/15 08:12:55;;;;;;;11.20;8.45;;;8.60;99.90;;;;;;6191315;23;20345;-93
2023/04/15 08:15:21;;;;;;;12.30;8.25;;;8.60;99.90;;;;;;6191557;23;20055;-94
2023/04/15 08:17:46;;;;;;;11.13;8.15;;;8.60;99.90;;;;;;6190895;23;20341;-93
2023/04/15 08:20:13;;;;;;;10.98;8.10;;;8.60;99.90;;;;;;6217610;23;20017;-94
2023/04/15 08:22:39;;;;;;;11.30;7.97;;;8.70;99.90;;;;;;6217808;23;20457;-94
2023/04/15 08:25:05;;;;;;;13.90;7.55;;;8.70;99.90;;;;;;6218043;23;20009;-93
2023/04/15 08:27:30;;;;;;;10.93;6.93;;;8.70;99.90;;;;;;6218123;23;20025;-94
2023/04/15 08:29:56;;;;;;;9.80;6.53;;;8.80;99.90;;;;;;6191327;23;20016;-93
2023/04/15 08:32:21;;;;;;;13.45;7.45;;;8.80;99.90;;;;;;6191357;23;20107;-93
2023/04/15 08:34:47;;;;;;;11.35;7.57;;;8.80;99.90;;;;;;6190735;23;20448;-95
2023/04/15 08:37:13;;;;;;;11.05;7.45;;;8.80;99.90;;;;;;6191256;23;20021;-93
2023/04/15 08:39:38;;;;;;;12.48;7.13;;;8.90;99.90;;;;;;6217635;23;20023;-93
2023/04/15 08:42:15;;;;;;;11.80;7.10;;;8.90;99.90;;;;;;6191058;23;20031;-95
2023/04/15 08:44:43;;;;;;;9.75;6.20;;;8.90;99.90;;;;;;6217583;23;20503;-93
2023/04/15 08:47:11;;;;;;;9.13;5.97;;;8.90;99.90;;;;;;6217941;23;20082;-92
2023/04/15 08:49:39;;;;;;;10.77;6.57;;;9.00;99.90;;;;;;6190872;23;20009;-94
2023/04/15 08:52:05;;;;;;;10.25;5.43;;;9.00;99.90;;;;;;6217914;23;20028;-95
2023/04/15 08:54:32;;;;;;;12.88;6.32;;;9.00;99.90;;;;;;6217307;23;20009;-92
2023/04/15 08:56:58;;;;;;;8.05;5.70;;;9.00;99.90;;;;;;6191085;23;20066;-94
2023/04/15 08:59:24;;;;;;;8.13;5.40;;;9.00;99.90;;;;;;6190708;23;20051;-93
2023/04/15 09:01:51;;;;;;;10.35;5.20;;;9.00;99.90;;;;;;6189553;23;20013;-93
2023/04/15 09:04:17;;;;;;;9.98;5.38;;;9.10;99.90;;;;;;6191977;23;20059;-90
2023/04/15 09:06:43;;;;;;;10.30;5.30;;;9.10;99.90;;;;;;6191388;23;20017;-89
2023/04/15 09:09:09;;;;;;;7.88;4.55;;;9.10;99.90;;;;;;6216808;23;20019;-90
2023/04/15 09:11:35;;;;;;;10.55;4.97;;;9.10;99.90;;;;;;6191318;23;20016;-93
2023/04/15 09:14:01;;;;;;;9.35;3.97;;;9.10;99.90;;;;;;6218844;23;20071;-89
2023/04/15 09:16:27;;;;;;;8.07;3.90;;;9.10;99.90;;;;;;6217949;23;20008;-91
2023/04/15 09:19:00;;;;;;;10.52;4.18;;;9.10;99.90;;;;;;6217745;23;20032;-94
2023/04/15 09:21:26;;;;;;;16.27;4.78;;;9.10;99.90;;;;;;6221929;23;20027;-94
2023/04/15 09:24:01;;;;;;;13.32;4.28;;;9.10;99.90;;;;;;6190474;23;20225;-94
2023/04/15 09:26:34;;;;;;;10.65;4.22;;;9.10;99.90;;;;;;6216582;23;20039;-93
2023/04/15 09:29:12;;;;;;;8.13;3.80;;;9.10;99.90;;;;;;6188628;23;20123;-94
2023/04/15 09:31:38;;;;;;;8.43;3.60;;;9.20;99.90;;;;;;6192261;23;20055;-94
2023/04/15 09:34:04;;;;;;;10.23;3.75;;;9.20;99.90;;;;;;6191034;23;20062;-94
2023/04/15 09:36:45;;;;;;;10.65;2.95;;;9.20;99.90;;;;;;6216501;23;20074;-95
2023/04/15 09:39:10;;;;;;;10.23;3.05;;;9.20;99.90;;;;;;6189997;23;20016;-94
2023/04/15 09:41:36;;;;;;;10.45;3.30;;;9.20;99.90;;;;;;6190106;23;20468;-93
2023/04/15 09:44:03;;;;;;;10.02;3.70;;;9.20;99.90;;;;;;6189582;23;20024;-93
2023/04/15 09:46:43;;;;;;;9.50;3.63;;;9.30;99.90;;;;;;6217688;23;20445;-95
2023/04/15 09:49:10;;;;;;;8.00;3.20;;;9.20;99.90;;;;;;6213250;23;20079;-87
2023/04/15 09:51:36;;;;;;;7.55;2.53;;;9.30;99.90;;;;;;6185275;23;20024;-90
2023/04/15 09:54:03;;;;;;;8.65;3.00;;;9.30;99.90;;;;;;6189776;23;20024;-88
2023/04/15 09:56:41;;;;;;;8.43;3.30;;;9.30;99.90;;;;;;6216646;23;20099;-88
2023/04/15 09:59:10;;;;;;;7.07;3.00;;;9.30;99.90;;;;;;6217752;23;20027;-93
2023/04/15 10:01:36;;;;;;;7.80;2.10;;;9.30;99.90;;;;;;6189890;23;20017;-95
2023/04/15 10:04:05;;;;;;;10.20;3.05;;;9.40;99.90;;;;;;6217120;23;20016;-94
2023/04/15 10:06:31;;;;;;;10.88;2.58;;;9.40;99.90;;;;;;6190531;23;20021;-94
2023/04/15 10:08:58;;;;;;;7.53;2.58;;;9.40;99.90;;;;;;6216974;23;20019;-95
2023/04/15 10:11:27;;;;;;;6.85;2.53;;;9.50;99.90;;;;;;6191607;23;20087;-94
2023/04/15 10:13:55;;;;;;;6.65;2.60;;;9.40;99.90;;;;;;6189357;23;20024;-94
2023/04/15 10:16:21;;;;;;;7.15;2.50;;;9.50;99.90;;;;;;6217584;23;20023;-94
2023/04/15 10:18:54;;;;;;;10.38;2.72;;;9.50;99.90;;;;;;6189900;23;20025;-90
2023/04/15 10:21:22;;;;;;;6.65;2.40;;;9.50;99.90;;;;;;6218307;23;20092;-95
2023/04/15 10:23:48;;;;;;;6.55;2.13;;;9.50;99.90;;;;;;6191104;23;20119;-96
2023/04/15 10:26:14;;;;;;;5.40;2.25;;;9.50;99.90;;;;;;6194049;23;20035;-96
2023/04/15 10:28:40;;;;;;;10.35;2.08;;;9.50;99.90;;;;;;6193482;23;20021;-95
2023/04/15 10:31:06;;;;;;;5.78;2.08;;;9.50;99.90;;;;;;6222018;23;20023;-96
2023/04/15 10:33:33;;;;;;;4.97;2.00;;;9.50;99.90;;;;;;6190478;23;20017;-93
2023/04/15 10:36:00;;;;;;;5.45;2.30;;;9.50;99.90;;;;;;6216168;23;20016;-94
2023/04/15 10:38:36;;;;;;;5.15;2.03;;;9.50;99.90;;;;;;6222170;23;20051;-93
2023/04/15 10:41:21;;;;;;;4.80;1.95;;;9.50;99.90;;;;;;6188416;23;20056;-92
2023/04/15 10:43:54;;;;;;;5.80;2.20;;;9.60;99.90;;;;;;6183922;23;20323;-94
2023/04/15 10:46:20;;;;;;;;;;;9.60;99.90;;;;;;6186914;23;20013;-95
2023/04/15 10:48:48;;;;;;;4.93;1.65;;;9.60;99.90;;;;;;6185570;23;19991;-93
2023/04/15 10:51:26;;;;;;;4.10;2.00;;;9.60;99.90;;;;;;6188531;23;20032;-94
2023/04/15 10:53:56;;;;;;;9.18;1.98;;;9.60;99.90;;;;;;6187968;23;20024;-94
2023/04/15 10:56:22;;;;;;;8.35;1.80;;;9.60;99.90;;;;;;6188306;23;20021;-96
2023/04/15 10:58:48;;;;;;;3.08;1.40;;;9.70;99.90;;;;;;6188091;23;20125;-96
2023/04/15 11:01:13;;;;;;;5.93;1.77;;;9.70;99.90;;;;;;6190397;23;20088;-95
2023/04/15 11:03:42;;;;;;;3.97;1.60;;;9.70;99.90;;;;;;6194318;23;20056;-96
2023/04/15 11:06:08;;;;;;;7.65;1.98;;;9.70;99.90;;;;;;6189729;23;20045;-96
2023/04/15 11:08:55;;;;;;;12.57;1.70;;;9.70;99.90;;;;;;6187080;23;20345;-91
2023/04/15 11:11:21;;;;;;;5.07;1.77;;;9.70;99.90;;;;;;6188516;23;20021;-96
2023/04/15 11:13:48;;;;;;;5.40;1.90;;;9.70;99.90;;;;;;6188704;23;20020;-91
2023/04/15 11:16:14;;;;;;;3.97;1.73;;;9.80;99.90;;;;;;6188327;23;20013;-91
2023/04/15 11:18:40;;;;;;;5.93;1.85;;;9.80;99.90;;;;;;6186701;23;20017;-92
2023/04/15 11:21:08;;;;;;;6.90;2.03;;;9.70;99.90;;;;;;6188700;23;20021;-91
2023/04/15 11:23:38;;;;;;;6.22;1.92;;;9.80;99.90;;;;;;6186734;23;20033;-94
2023/04/15 11:26:10;;;;;;;7.30;2.08;;;9.80;99.90;;;;;;6187666;23;20333;-95
2023/04/15 11:28:38;;;;;;;7.38;2.00;;;9.70;99.90;;;;;;6188649;23;20009;-94
2023/04/15 11:31:13;;;;;;;7.28;2.15;;;9.80;99.90;;;;;;6193192;23;20020;-96
2023/04/15 11:33:45;;;;;;;5.80;2.20;;;9.80;99.90;;;;;;6193225;23;20311;-96
2023/04/15 11:36:11;;;;;;;6.60;2.20;;;9.80;99.90;;;;;;6187051;23;20032;-96
2023/04/15 11:38:41;;;;;;;9.32;2.22;;;9.80;99.90;;;;;;6188710;23;20017;-93
2023/04/15 11:41:06;;;;;;;7.35;2.20;;;9.80;99.90;;;;;;6186451;23;20023;-94
2023/04/15 11:43:34;;;;;;;7.85;2.40;;;9.80;99.90;;;;;;6187908;23;20100;-95
2023/04/15 11:46:01;;;;;;;7.35;2.10;;;9.80;99.90;;;;;;6187342;23;20529;-96
2023/04/15 11:48:32;;;;;;;8.18;2.40;;;9.80;99.90;;;;;;6187371;23;20023;-96
2023/04/15 11:51:00;;;;;;;8.35;2.10;;;9.80;99.90;;;;;;6187292;23;20020;-96
2023/04/15 11:53:56;;;;;;;8.35;2.30;;;9.90;99.90;;;;;;6187064;23;20017;-94
2023/04/15 11:56:26;;;;;;;9.25;3.10;;;9.80;99.90;;;;;;6176577;23;20079;-95
2023/04/15 11:58:55;;;;;;;8.90;2.65;;;9.90;99.90;;;;;;6187147;23;20429;-92
2023/04/15 12:01:32;;;;;;;8.70;2.00;;;9.90;99.90;;;;;;6187677;23;20017;-95
2023/04/15 12:04:00;;;;;;;8.15;2.15;;;9.90;99.90;;;;;;6187678;23;20017;-93
2023/04/15 12:06:33;;;;;;;7.22;2.13;;;9.90;99.90;;;;;;6185678;23;20051;-91
2023/04/15 12:09:09;;;;;;;7.90;1.85;;;9.90;99.90;;;;;;6185865;23;20021;-95
2023/04/15 12:11:36;;;;;;;6.70;2.10;;;10.00;99.90;;;;;;6186752;23;20149;-93
2023/04/15 12:14:10;;;;;;;7.65;2.15;;;10.00;99.90;;;;;;6188359;23;20016;-92
2023/04/15 12:16:38;;;;;;;8.93;2.15;;;10.00;99.90;;;;;;6186754;23;20024;-92
2023/04/15 12:19:08;;;;;;;7.50;2.17;;;10.10;99.90;;;;;;6186554;23;20023;-89
2023/04/15 12:21:35;;;;;;;7.57;2.00;;;10.10;99.90;;;;;;6186342;23;20064;-92
2023/04/15 12:24:04;;;;;;;6.40;1.75;;;10.10;99.90;;;;;;6185203;23;20016;-91
2023/04/15 12:26:36;;;;;;;7.22;2.10;;;10.10;99.90;;;;;;6185695;23;20503;-95
2023/04/15 12:29:06;;;;;;;8.07;2.10;;;10.10;99.90;;;;;;6187698;23;20040;-95
2023/04/15 12:31:36;;;;;;;9.30;1.90;;;10.10;99.90;;;;;;6187825;23;20020;-94
2023/04/15 12:34:02;;;;;;;8.75;1.83;;;10.10;99.90;;;;;;6188017;23;20019;-94
2023/04/15 12:36:31;;;;;;;8.70;2.45;;;10.00;99.90;;;;;;6188019;23;20333;-94
2023/04/15 12:38:57;;;;;;;12.27;2.50;;;10.00;99.90;;;;;;6188176;23;20017;-94
2023/04/15 12:41:23;;;;;;;9.13;2.00;;;10.10;99.90;;;;;;6216601;23;20088;-94
2023/04/15 12:43:49;;;;;;;9.35;1.90;;;10.10;99.90;;;;;;6190920;23;20087;-94
2023/04/15 12:46:15;;;;;;;8.32;2.05;;;10.10;99.90;;;;;;6217632;23;20016;-94